Terminal Aerodrome Forecast
Issued by NWS

Home | Current Version | Previous Version | Text Only | Print | Product List | Glossary On
Versions: 1 2 3 4 5 6 7 8 9 10 11 12 13 14 15 16 17
000
FTUS42 TJSJ 301100
TAFJBQ
TAF
TJBQ 301120Z 3012/3112 12004KT P6SM FEW025 SCT060
     FM301530 07013KT P6SM VCSH SCT025 BKN050
     FM302300 09008KT P6SM FEW030 SCT070=

USA.gov is the U.S. government's official web portal to all federal, state and local government web resources and services.